»·PEaware :: N4269T KAPA-KASE

N4269T :: KAPA-KASE

FLIGHT INFORMATION

Flight Status: Arrived
Operator: Privately registered:
United States
More flights under this callsign
Pilot: Chuck O. (4337)
Aircraft: Unknown
(B60T)
More flights by this aircraft type
Origin: KAPA Centennial
United States
Destination: KASE Aspen-Pitkin Co/Sardy
United States
More flights between these airports :: More routes between these airports
Route: +ROCKI3 DBL
File this flight plan on PilotEdge
Remarks:
Altitude:
(Current/Filed)
180ft
Speed:
(Current/Filed)
260kts
Departed: 12-Nov-17 01:39 PM
Arrived: 12-Nov-17 02:21 PM
Distance/Time
Traveled:
96nm/0:41
Distance/Time
To Go:
Arrived

Flight Plot

Page will automatically refresh every two minutes.

Flight plan parsing failed; only flown route is shown


Map Options




Map Legend


Flown Route
Filed Route
Departure Airport
Arrival Airport
Navaid (VOR, NDB)
Fix

Horizontal Profiles

Position Reports

Time Latitude Longitude Heading Altitude Ground
Speed
12-Nov-17 13:18 39.580775 -104.848006 176 5886ft 0kts
12-Nov-17 13:19 39.580774 -104.848006 176 5886ft 0kts
12-Nov-17 13:20 39.580772 -104.848005 176 5886ft 0kts
12-Nov-17 13:21 39.580770 -104.848005 176 5886ft 0kts
12-Nov-17 13:22 39.580768 -104.848005 176 5886ft 0kts
12-Nov-17 13:23 39.580767 -104.848005 176 5886ft 0kts
12-Nov-17 13:24 39.580765 -104.848005 176 5886ft 0kts
12-Nov-17 13:25 39.580763 -104.848005 176 5886ft 0kts
12-Nov-17 13:26 39.580761 -104.848005 176 5886ft 0kts
12-Nov-17 13:27 39.580760 -104.848004 176 5886ft 0kts
12-Nov-17 13:28 39.580758 -104.848004 176 5886ft 0kts
12-Nov-17 13:29 39.580756 -104.848004 176 5886ft 0kts
12-Nov-17 13:30 39.580754 -104.848004 176 5886ft 0kts
12-Nov-17 13:31 39.580753 -104.848004 176 5886ft 0kts
12-Nov-17 13:32 39.580370 -104.848204 240 5886ft 0kts
12-Nov-17 13:33 39.580552 -104.848483 335 5886ft 7kts
12-Nov-17 13:34 39.580852 -104.848662 333 5886ft 0kts
12-Nov-17 13:35 39.580857 -104.848665 333 5886ft 0kts
12-Nov-17 13:36 39.580861 -104.848668 333 5886ft 0kts
12-Nov-17 13:37 39.580866 -104.848671 333 5886ft 0kts
12-Nov-17 13:38 39.581776 -104.849288 344 5886ft 8kts
12-Nov-17 13:39 39.583202 -104.850021 357 5886ft 4kts
12-Nov-17 13:40 39.584083 -104.850245 275 5886ft 0kts
12-Nov-17 13:41 39.584083 -104.850248 275 5886ft 0kts
12-Nov-17 13:42 39.584083 -104.850252 275 5886ft 0kts
12-Nov-17 13:43 39.583851 -104.851453 186 5886ft 0kts
12-Nov-17 13:44 39.557820 -104.849708 180 6304ft 162kts
12-Nov-17 13:45 39.510578 -104.857821 178 7708ft 183kts
12-Nov-17 13:46 39.454877 -104.854088 177 8655ft 195kts
12-Nov-17 13:47 39.408303 -104.864762 241 10698ft 172kts
12-Nov-17 13:48 39.416529 -104.926546 285 12852ft 182kts
12-Nov-17 13:49 39.437877 -104.985344 289 14984ft 178kts
12-Nov-17 13:50 39.459157 -105.041490 288 17077ft 170kts
12-Nov-17 13:51 39.481667 -105.099602 289 18043ft 201kts
12-Nov-17 13:52 39.507806 -105.166982 289 18044ft 214kts
12-Nov-17 13:53 39.534692 -105.236556 289 18052ft 217kts
12-Nov-17 13:54 39.561647 -105.306482 289 18149ft 216kts
12-Nov-17 13:55 39.588636 -105.376700 289 18128ft 218kts
12-Nov-17 13:56 39.615728 -105.447328 289 18153ft 218kts
12-Nov-17 13:57 39.641757 -105.517826 278 18181ft 212kts
12-Nov-17 13:58 39.632243 -105.590547 258 18243ft 206kts
12-Nov-17 13:59 39.621575 -105.663909 258 18253ft 207kts
12-Nov-17 14:00 39.611100 -105.737168 258 18260ft 206kts
12-Nov-17 14:01 39.600604 -105.810393 258 18265ft 206kts
12-Nov-17 14:02 39.590032 -105.883820 258 18267ft 206kts
12-Nov-17 14:03 39.579442 -105.957025 258 18272ft 206kts
12-Nov-17 14:04 39.568808 -106.030202 258 18276ft 206kts
12-Nov-17 14:05 39.558094 -106.103572 258 18281ft 207kts
12-Nov-17 14:06 39.547361 -106.176751 258 18279ft 207kts
12-Nov-17 14:07 39.536533 -106.250223 258 18274ft 207kts
12-Nov-17 14:08 39.525693 -106.323497 257 18262ft 207kts
12-Nov-17 14:09 39.525404 -106.399458 270 17144ft 212kts
12-Nov-17 14:10 39.530501 -106.474447 271 16194ft 198kts
12-Nov-17 14:11 39.535127 -106.543894 271 16104ft 190kts
12-Nov-17 14:12 39.539602 -106.602730 271 16091ft 172kts
12-Nov-17 14:13 39.544148 -106.656275 271 16087ft 165kts
12-Nov-17 14:14 39.549335 -106.715022 271 16080ft 163kts
12-Nov-17 14:15 39.544797 -106.775324 254 15300ft 184kts
12-Nov-17 14:16 39.532128 -106.840897 254 14091ft 180kts
12-Nov-17 14:17 39.522150 -106.894137 255 13996ft 135kts
12-Nov-17 14:18 39.509819 -106.938919 248 14001ft 130kts
12-Nov-17 14:19 39.482562 -106.960422 176 14026ft 142kts
12-Nov-17 14:20 39.444475 -106.960510 190 14321ft 135kts
12-Nov-17 14:21 39.404192 -106.955249 174 13950ft 169kts
12-Nov-17 14:22 39.356879 -106.932917 168 13008ft 179kts
12-Nov-17 14:23 39.313263 -106.911902 168 12579ft 160kts
12-Nov-17 14:24 39.272007 -106.891598 151 10758ft 179kts
12-Nov-17 14:25 39.233927 -106.873834 162 7890ft 115kts
12-Nov-17 14:26 39.223313 -106.868136 74 7823ft 0kts
12-Nov-17 14:27 39.223314 -106.868132 74 7823ft 0kts
12-Nov-17 14:28 39.223570 -106.867823 0 7823ft 7kts
12-Nov-17 14:29 39.225835 -106.868475 40 7823ft 5kts
12-Nov-17 14:30 39.226537 -106.868710 339 7823ft 5kts
12-Nov-17 14:31 39.226703 -106.868938 249 7823ft 0kts

Navigation Log

Ident Type
Flight plan parsing failed, navigation log unavailable